sensor_id;sensor_type;location;lat;lon;timestamp;P1;durP1;ratioP1;P2;durP2;ratioP2
27957;SDS011;15295;42.658;23.374;2022-11-20T00:00:11;17.60;;;9.32;;
27957;SDS011;15295;42.658;23.374;2022-11-20T00:02:43;16.20;;;9.80;;
27957;SDS011;15295;42.658;23.374;2022-11-20T00:05:50;16.58;;;9.30;;
27957;SDS011;15295;42.658;23.374;2022-11-20T00:08:18;16.40;;;9.43;;
27957;SDS011;15295;42.658;23.374;2022-11-20T00:11:07;17.20;;;9.02;;
27957;SDS011;15295;42.658;23.374;2022-11-20T00:13:40;19.52;;;10.38;;
27957;SDS011;15295;42.658;23.374;2022-11-20T00:16:10;12.85;;;8.73;;
27957;SDS011;15295;42.658;23.374;2022-11-20T00:18:44;14.45;;;8.65;;
27957;SDS011;15295;42.658;23.374;2022-11-20T00:21:11;17.95;;;8.95;;
27957;SDS011;15295;42.658;23.374;2022-11-20T00:23:52;20.92;;;9.07;;
27957;SDS011;15295;42.658;23.374;2022-11-20T00:26:32;13.63;;;7.93;;
27957;SDS011;15295;42.658;23.374;2022-11-20T00:29:31;11.15;;;7.88;;
27957;SDS011;15295;42.658;23.374;2022-11-20T00:32:23;16.02;;;7.43;;
27957;SDS011;15295;42.658;23.374;2022-11-20T00:34:59;8.98;;;5.30;;
27957;SDS011;15295;42.658;23.374;2022-11-20T00:37:48;11.65;;;6.50;;
27957;SDS011;15295;42.658;23.374;2022-11-20T00:40:25;10.65;;;5.70;;
27957;SDS011;15295;42.658;23.374;2022-11-20T00:43:03;9.55;;;5.32;;
27957;SDS011;15295;42.658;23.374;2022-11-20T00:45:30;9.98;;;5.80;;
27957;SDS011;15295;42.658;23.374;2022-11-20T00:48:08;11.35;;;5.90;;
27957;SDS011;15295;42.658;23.374;2022-11-20T00:50:35;9.45;;;5.38;;
27957;SDS011;15295;42.658;23.374;2022-11-20T00:58:20;10.27;;;5.00;;
27957;SDS011;15295;42.658;23.374;2022-11-20T01:01:05;7.07;;;3.85;;
27957;SDS011;15295;42.658;23.374;2022-11-20T01:03:48;7.15;;;3.17;;
27957;SDS011;15295;42.658;23.374;2022-11-20T01:06:32;9.35;;;4.47;;
27957;SDS011;15295;42.658;23.374;2022-11-20T01:09:05;5.83;;;3.50;;
27957;SDS011;15295;42.658;23.374;2022-11-20T01:11:54;5.43;;;2.72;;
27957;SDS011;15295;42.658;23.374;2022-11-20T01:14:41;9.27;;;3.08;;
27957;SDS011;15295;42.658;23.374;2022-11-20T01:17:06;9.55;;;3.30;;
27957;SDS011;15295;42.658;23.374;2022-11-20T01:19:49;4.45;;;2.60;;
27957;SDS011;15295;42.658;23.374;2022-11-20T01:22:17;10.48;;;2.70;;
27957;SDS011;15295;42.658;23.374;2022-11-20T01:25:26;7.00;;;3.50;;
27957;SDS011;15295;42.658;23.374;2022-11-20T01:28:01;7.00;;;3.45;;
27957;SDS011;15295;42.658;23.374;2022-11-20T01:30:34;6.78;;;3.50;;
27957;SDS011;15295;42.658;23.374;2022-11-20T01:35:51;9.40;;;3.80;;
27957;SDS011;15295;42.658;23.374;2022-11-20T01:38:22;9.05;;;3.45;;
27957;SDS011;15295;42.658;23.374;2022-11-20T01:40:54;9.02;;;3.05;;
27957;SDS011;15295;42.658;23.374;2022-11-20T01:43:23;5.35;;;3.28;;
27957;SDS011;15295;42.658;23.374;2022-11-20T01:46:02;6.75;;;3.10;;
27957;SDS011;15295;42.658;23.374;2022-11-20T01:48:40;8.10;;;3.65;;
27957;SDS011;15295;42.658;23.374;2022-11-20T01:51:42;7.45;;;3.60;;
27957;SDS011;15295;42.658;23.374;2022-11-20T01:54:20;7.72;;;4.50;;
27957;SDS011;15295;42.658;23.374;2022-11-20T01:57:02;7.22;;;4.32;;
27957;SDS011;15295;42.658;23.374;2022-11-20T01:59:38;12.00;;;4.05;;
27957;SDS011;15295;42.658;23.374;2022-11-20T02:02:12;7.57;;;3.50;;
27957;SDS011;15295;42.658;23.374;2022-11-20T02:04:46;8.00;;;3.97;;
27957;SDS011;15295;42.658;23.374;2022-11-20T02:07:14;8.15;;;4.00;;
27957;SDS011;15295;42.658;23.374;2022-11-20T02:09:52;7.30;;;3.63;;
27957;SDS011;15295;42.658;23.374;2022-11-20T02:12:22;8.07;;;3.85;;
27957;SDS011;15295;42.658;23.374;2022-11-20T02:15:15;5.10;;;3.42;;
27957;SDS011;15295;42.658;23.374;2022-11-20T02:17:44;10.68;;;4.18;;
27957;SDS011;15295;42.658;23.374;2022-11-20T02:20:12;5.43;;;2.90;;
27957;SDS011;15295;42.658;23.374;2022-11-20T02:22:56;6.72;;;2.45;;
27957;SDS011;15295;42.658;23.374;2022-11-20T02:25:51;7.30;;;3.13;;
27957;SDS011;15295;42.658;23.374;2022-11-20T02:28:29;8.60;;;3.22;;
27957;SDS011;15295;42.658;23.374;2022-11-20T02:30:57;7.72;;;3.53;;
27957;SDS011;15295;42.658;23.374;2022-11-20T02:33:39;6.53;;;3.20;;
27957;SDS011;15295;42.658;23.374;2022-11-20T02:36:08;5.72;;;3.28;;
27957;SDS011;15295;42.658;23.374;2022-11-20T02:38:42;5.60;;;2.90;;
27957;SDS011;15295;42.658;23.374;2022-11-20T02:41:34;6.97;;;2.58;;
27957;SDS011;15295;42.658;23.374;2022-11-20T02:44:08;5.07;;;2.03;;
27957;SDS011;15295;42.658;23.374;2022-11-20T02:46:48;5.97;;;1.85;;
27957;SDS011;15295;42.658;23.374;2022-11-20T02:49:17;5.82;;;2.25;;
27957;SDS011;15295;42.658;23.374;2022-11-20T02:51:43;5.40;;;1.70;;
27957;SDS011;15295;42.658;23.374;2022-11-20T02:54:13;7.28;;;1.65;;
27957;SDS011;15295;42.658;23.374;2022-11-20T02:56:53;8.93;;;1.30;;
27957;SDS011;15295;42.658;23.374;2022-11-20T02:59:45;3.10;;;1.00;;
27957;SDS011;15295;42.658;23.374;2022-11-20T03:02:11;5.47;;;1.10;;
27957;SDS011;15295;42.658;23.374;2022-11-20T03:05:04;4.50;;;0.98;;
27957;SDS011;15295;42.658;23.374;2022-11-20T03:07:40;5.95;;;1.13;;
27957;SDS011;15295;42.658;23.374;2022-11-20T03:10:29;2.67;;;1.15;;
27957;SDS011;15295;42.658;23.374;2022-11-20T03:13:06;5.15;;;1.25;;
27957;SDS011;15295;42.658;23.374;2022-11-20T03:15:37;2.75;;;1.08;;
27957;SDS011;15295;42.658;23.374;2022-11-20T03:21:14;4.18;;;1.10;;
27957;SDS011;15295;42.658;23.374;2022-11-20T03:23:54;5.30;;;1.08;;
27957;SDS011;15295;42.658;23.374;2022-11-20T03:26:36;4.13;;;0.90;;
27957;SDS011;15295;42.658;23.374;2022-11-20T03:29:14;1.92;;;1.00;;
27957;SDS011;15295;42.658;23.374;2022-11-20T03:32:00;4.55;;;1.00;;
27957;SDS011;15295;42.658;23.374;2022-11-20T03:35:19;2.78;;;1.08;;
27957;SDS011;15295;42.658;23.374;2022-11-20T03:37:59;3.50;;;0.85;;
27957;SDS011;15295;42.658;23.374;2022-11-20T03:40:30;4.65;;;1.17;;
27957;SDS011;15295;42.658;23.374;2022-11-20T03:43:02;6.28;;;1.02;;
27957;SDS011;15295;42.658;23.374;2022-11-20T03:45:58;6.25;;;1.00;;
27957;SDS011;15295;42.658;23.374;2022-11-20T03:48:27;3.60;;;0.88;;
27957;SDS011;15295;42.658;23.374;2022-11-20T03:51:14;2.97;;;0.95;;
27957;SDS011;15295;42.658;23.374;2022-11-20T03:53:59;4.75;;;1.10;;
27957;SDS011;15295;42.658;23.374;2022-11-20T03:56:42;3.63;;;1.08;;
27957;SDS011;15295;42.658;23.374;2022-11-20T04:02:15;3.85;;;1.00;;
27957;SDS011;15295;42.658;23.374;2022-11-20T04:07:48;2.20;;;1.10;;
27957;SDS011;15295;42.658;23.374;2022-11-20T04:10:22;4.55;;;1.00;;
27957;SDS011;15295;42.658;23.374;2022-11-20T04:13:00;3.03;;;1.00;;
27957;SDS011;15295;42.658;23.374;2022-11-20T04:21:02;5.75;;;1.23;;
27957;SDS011;15295;42.658;23.374;2022-11-20T04:24:06;3.10;;;1.17;;
27957;SDS011;15295;42.658;23.374;2022-11-20T04:26:41;1.75;;;0.85;;
27957;SDS011;15295;42.658;23.374;2022-11-20T04:30:08;4.50;;;0.90;;
27957;SDS011;15295;42.658;23.374;2022-11-20T04:33:10;2.53;;;0.90;;
27957;SDS011;15295;42.658;23.374;2022-11-20T04:35:59;4.93;;;0.90;;
27957;SDS011;15295;42.658;23.374;2022-11-20T04:38:49;3.85;;;0.98;;
27957;SDS011;15295;42.658;23.374;2022-11-20T04:44:52;6.28;;;1.10;;
27957;SDS011;15295;42.658;23.374;2022-11-20T04:47:53;4.68;;;1.13;;
27957;SDS011;15295;42.658;23.374;2022-11-20T04:50:51;1.77;;;0.80;;
27957;SDS011;15295;42.658;23.374;2022-11-20T04:53:31;5.25;;;0.90;;
27957;SDS011;15295;42.658;23.374;2022-11-20T04:56:23;6.80;;;1.10;;
27957;SDS011;15295;42.658;23.374;2022-11-20T05:01:34;4.47;;;1.20;;
27957;SDS011;15295;42.658;23.374;2022-11-20T05:14:31;5.78;;;1.42;;
27957;SDS011;15295;42.658;23.374;2022-11-20T05:17:58;2.28;;;1.15;;
27957;SDS011;15295;42.658;23.374;2022-11-20T05:21:08;4.97;;;2.20;;
27957;SDS011;15295;42.658;23.374;2022-11-20T05:24:21;6.90;;;2.50;;
27957;SDS011;15295;42.658;23.374;2022-11-20T05:27:44;9.20;;;2.58;;
27957;SDS011;15295;42.658;23.374;2022-11-20T05:34:08;2.88;;;1.25;;
27957;SDS011;15295;42.658;23.374;2022-11-20T05:36:42;6.32;;;1.40;;
27957;SDS011;15295;42.658;23.374;2022-11-20T05:39:24;3.17;;;1.17;;
27957;SDS011;15295;42.658;23.374;2022-11-20T05:41:52;3.78;;;1.40;;
27957;SDS011;15295;42.658;23.374;2022-11-20T05:45:01;2.88;;;1.42;;
27957;SDS011;15295;42.658;23.374;2022-11-20T05:47:52;4.43;;;1.77;;
27957;SDS011;15295;42.658;23.374;2022-11-20T05:50:57;3.45;;;1.52;;
27957;SDS011;15295;42.658;23.374;2022-11-20T05:53:36;5.10;;;1.90;;
27957;SDS011;15295;42.658;23.374;2022-11-20T05:56:17;7.20;;;2.17;;
27957;SDS011;15295;42.658;23.374;2022-11-20T05:58:53;11.52;;;1.70;;
27957;SDS011;15295;42.658;23.374;2022-11-20T06:01:55;7.60;;;1.98;;
27957;SDS011;15295;42.658;23.374;2022-11-20T06:05:05;5.90;;;1.40;;
27957;SDS011;15295;42.658;23.374;2022-11-20T06:08:20;7.97;;;2.22;;
27957;SDS011;15295;42.658;23.374;2022-11-20T06:11:16;11.00;;;2.00;;
27957;SDS011;15295;42.658;23.374;2022-11-20T06:14:00;9.00;;;1.65;;
27957;SDS011;15295;42.658;23.374;2022-11-20T06:16:33;3.65;;;1.35;;
27957;SDS011;15295;42.658;23.374;2022-11-20T06:19:22;8.57;;;1.83;;
27957;SDS011;15295;42.658;23.374;2022-11-20T06:22:43;4.72;;;1.35;;
27957;SDS011;15295;42.658;23.374;2022-11-20T06:25:46;8.07;;;1.60;;
27957;SDS011;15295;42.658;23.374;2022-11-20T06:28:47;4.53;;;1.70;;
27957;SDS011;15295;42.658;23.374;2022-11-20T06:31:50;4.82;;;1.50;;
27957;SDS011;15295;42.658;23.374;2022-11-20T06:34:38;9.70;;;3.47;;
27957;SDS011;15295;42.658;23.374;2022-11-20T06:37:45;7.13;;;1.67;;
27957;SDS011;15295;42.658;23.374;2022-11-20T06:40:12;5.45;;;1.77;;
27957;SDS011;15295;42.658;23.374;2022-11-20T06:43:02;6.70;;;1.60;;
27957;SDS011;15295;42.658;23.374;2022-11-20T06:45:50;3.45;;;1.35;;
27957;SDS011;15295;42.658;23.374;2022-11-20T06:48:52;10.80;;;2.53;;
27957;SDS011;15295;42.658;23.374;2022-11-20T06:52:16;4.30;;;1.60;;
27957;SDS011;15295;42.658;23.374;2022-11-20T06:57:53;5.45;;;1.63;;
27957;SDS011;15295;42.658;23.374;2022-11-20T07:00:19;2.83;;;1.45;;
27957;SDS011;15295;42.658;23.374;2022-11-20T07:02:44;5.05;;;1.77;;
27957;SDS011;15295;42.658;23.374;2022-11-20T07:05:10;10.82;;;2.97;;
27957;SDS011;15295;42.658;23.374;2022-11-20T07:07:35;10.45;;;2.55;;
27957;SDS011;15295;42.658;23.374;2022-11-20T07:10:01;7.50;;;3.15;;
27957;SDS011;15295;42.658;23.374;2022-11-20T07:12:27;6.72;;;1.98;;
27957;SDS011;15295;42.658;23.374;2022-11-20T07:14:53;5.07;;;1.88;;
27957;SDS011;15295;42.658;23.374;2022-11-20T07:17:20;8.82;;;1.75;;
27957;SDS011;15295;42.658;23.374;2022-11-20T07:19:48;6.47;;;1.90;;
27957;SDS011;15295;42.658;23.374;2022-11-20T07:22:13;6.38;;;2.38;;
27957;SDS011;15295;42.658;23.374;2022-11-20T07:24:42;4.35;;;1.80;;
27957;SDS011;15295;42.658;23.374;2022-11-20T07:27:08;5.55;;;1.90;;
27957;SDS011;15295;42.658;23.374;2022-11-20T07:29:35;8.40;;;2.13;;
27957;SDS011;15295;42.658;23.374;2022-11-20T07:32:00;8.00;;;1.88;;
27957;SDS011;15295;42.658;23.374;2022-11-20T07:34:29;6.15;;;1.92;;
27957;SDS011;15295;42.658;23.374;2022-11-20T07:36:54;10.73;;;2.10;;
27957;SDS011;15295;42.658;23.374;2022-11-20T07:39:27;4.90;;;1.75;;
27957;SDS011;15295;42.658;23.374;2022-11-20T07:41:53;3.08;;;1.02;;
27957;SDS011;15295;42.658;23.374;2022-11-20T07:44:23;5.10;;;1.48;;
27957;SDS011;15295;42.658;23.374;2022-11-20T07:46:49;8.10;;;1.95;;
27957;SDS011;15295;42.658;23.374;2022-11-20T07:49:15;6.97;;;1.77;;
27957;SDS011;15295;42.658;23.374;2022-11-20T07:51:43;8.48;;;2.00;;
27957;SDS011;15295;42.658;23.374;2022-11-20T07:54:09;6.65;;;1.40;;
27957;SDS011;15295;42.658;23.374;2022-11-20T07:56:36;6.25;;;1.58;;
27957;SDS011;15295;42.658;23.374;2022-11-20T07:59:03;3.78;;;1.40;;
27957;SDS011;15295;42.658;23.374;2022-11-20T08:01:29;4.72;;;1.20;;
27957;SDS011;15295;42.658;23.374;2022-11-20T08:03:54;7.40;;;1.85;;
27957;SDS011;15295;42.658;23.374;2022-11-20T08:06:20;5.03;;;1.70;;
27957;SDS011;15295;42.658;23.374;2022-11-20T08:08:47;4.80;;;1.58;;
27957;SDS011;15295;42.658;23.374;2022-11-20T08:11:12;6.30;;;1.90;;
27957;SDS011;15295;42.658;23.374;2022-11-20T08:13:56;5.97;;;2.05;;
27957;SDS011;15295;42.658;23.374;2022-11-20T08:16:49;7.53;;;1.90;;
27957;SDS011;15295;42.658;23.374;2022-11-20T08:19:16;7.47;;;1.60;;
27957;SDS011;15295;42.658;23.374;2022-11-20T08:21:43;6.43;;;1.58;;
27957;SDS011;15295;42.658;23.374;2022-11-20T08:24:12;9.38;;;2.30;;
27957;SDS011;15295;42.658;23.374;2022-11-20T08:26:38;7.45;;;1.88;;
27957;SDS011;15295;42.658;23.374;2022-11-20T08:29:05;6.47;;;1.65;;
27957;SDS011;15295;42.658;23.374;2022-11-20T08:31:31;6.57;;;1.80;;
27957;SDS011;15295;42.658;23.374;2022-11-20T08:33:57;10.48;;;3.00;;
27957;SDS011;15295;42.658;23.374;2022-11-20T08:36:26;8.13;;;2.35;;
27957;SDS011;15295;42.658;23.374;2022-11-20T08:38:52;14.93;;;5.25;;
27957;SDS011;15295;42.658;23.374;2022-11-20T08:41:19;18.67;;;5.85;;
27957;SDS011;15295;42.658;23.374;2022-11-20T08:43:48;13.32;;;4.28;;
27957;SDS011;15295;42.658;23.374;2022-11-20T08:46:19;8.70;;;2.25;;
27957;SDS011;15295;42.658;23.374;2022-11-20T08:48:47;7.55;;;2.40;;
27957;SDS011;15295;42.658;23.374;2022-11-20T08:51:20;6.88;;;2.22;;
27957;SDS011;15295;42.658;23.374;2022-11-20T08:53:47;11.98;;;3.65;;
27957;SDS011;15295;42.658;23.374;2022-11-20T08:56:19;14.18;;;4.53;;
27957;SDS011;15295;42.658;23.374;2022-11-20T08:58:46;9.63;;;2.60;;
27957;SDS011;15295;42.658;23.374;2022-11-20T09:01:17;17.83;;;8.40;;
27957;SDS011;15295;42.658;23.374;2022-11-20T09:03:48;8.63;;;2.55;;
27957;SDS011;15295;42.658;23.374;2022-11-20T09:06:15;10.68;;;2.83;;
27957;SDS011;15295;42.658;23.374;2022-11-20T09:08:41;9.10;;;2.88;;
27957;SDS011;15295;42.658;23.374;2022-11-20T09:11:13;8.27;;;2.28;;
27957;SDS011;15295;42.658;23.374;2022-11-20T09:13:41;10.48;;;3.30;;
27957;SDS011;15295;42.658;23.374;2022-11-20T09:16:21;7.23;;;2.83;;
27957;SDS011;15295;42.658;23.374;2022-11-20T09:18:49;10.32;;;3.95;;
27957;SDS011;15295;42.658;23.374;2022-11-20T09:23:50;6.80;;;3.97;;
27957;SDS011;15295;42.658;23.374;2022-11-20T09:26:15;9.85;;;4.30;;
27957;SDS011;15295;42.658;23.374;2022-11-20T09:28:41;10.05;;;5.00;;
27957;SDS011;15295;42.658;23.374;2022-11-20T09:31:19;8.07;;;3.40;;
27957;SDS011;15295;42.658;23.374;2022-11-20T09:33:54;7.95;;;4.38;;
27957;SDS011;15295;42.658;23.374;2022-11-20T09:39:41;6.70;;;3.30;;
27957;SDS011;15295;42.658;23.374;2022-11-20T09:50:55;7.32;;;4.15;;
27957;SDS011;15295;42.658;23.374;2022-11-20T10:07:47;2.70;;;1.80;;
27957;SDS011;15295;42.658;23.374;2022-11-20T10:13:24;5.70;;;2.85;;
27957;SDS011;15295;42.658;23.374;2022-11-20T10:16:03;6.22;;;2.90;;
27957;SDS011;15295;42.658;23.374;2022-11-20T10:27:57;7.07;;;2.83;;
27957;SDS011;15295;42.658;23.374;2022-11-20T10:30:34;6.95;;;3.13;;
27957;SDS011;15295;42.658;23.374;2022-11-20T10:33:19;8.70;;;2.90;;
27957;SDS011;15295;42.658;23.374;2022-11-20T10:35:54;9.77;;;3.75;;
27957;SDS011;15295;42.658;23.374;2022-11-20T10:38:39;26.90;;;14.07;;
27957;SDS011;15295;42.658;23.374;2022-11-20T10:41:17;30.70;;;17.50;;
27957;SDS011;15295;42.658;23.374;2022-11-20T10:43:57;8.57;;;4.13;;
27957;SDS011;15295;42.658;23.374;2022-11-20T10:46:31;13.32;;;6.38;;
27957;SDS011;15295;42.658;23.374;2022-11-20T10:49:02;13.23;;;6.78;;
27957;SDS011;15295;42.658;23.374;2022-11-20T10:51:37;11.98;;;5.43;;
27957;SDS011;15295;42.658;23.374;2022-11-20T10:56:48;22.42;;;11.35;;
27957;SDS011;15295;42.658;23.374;2022-11-20T11:01:44;13.00;;;5.32;;
27957;SDS011;15295;42.658;23.374;2022-11-20T11:04:44;14.05;;;4.65;;
27957;SDS011;15295;42.658;23.374;2022-11-20T11:09:50;11.30;;;4.88;;
27957;SDS011;15295;42.658;23.374;2022-11-20T11:12:18;14.48;;;5.20;;
27957;SDS011;15295;42.658;23.374;2022-11-20T11:14:52;10.30;;;5.50;;
27957;SDS011;15295;42.658;23.374;2022-11-20T11:17:28;18.02;;;6.63;;
27957;SDS011;15295;42.658;23.374;2022-11-20T11:19:56;16.42;;;5.88;;
27957;SDS011;15295;42.658;23.374;2022-11-20T11:27:59;4.63;;;2.20;;
27957;SDS011;15295;42.658;23.374;2022-11-20T11:30:29;7.20;;;2.07;;
27957;SDS011;15295;42.658;23.374;2022-11-20T11:33:09;7.80;;;2.10;;
27957;SDS011;15295;42.658;23.374;2022-11-20T11:35:54;2.13;;;1.25;;
27957;SDS011;15295;42.658;23.374;2022-11-20T11:38:42;3.42;;;1.35;;
27957;SDS011;15295;42.658;23.374;2022-11-20T11:41:13;4.10;;;1.60;;
27957;SDS011;15295;42.658;23.374;2022-11-20T11:43:49;3.25;;;1.08;;
27957;SDS011;15295;42.658;23.374;2022-11-20T11:46:36;4.82;;;1.23;;
27957;SDS011;15295;42.658;23.374;2022-11-20T11:52:18;6.25;;;1.10;;
27957;SDS011;15295;42.658;23.374;2022-11-20T11:57:47;5.25;;;1.98;;
27957;SDS011;15295;42.658;23.374;2022-11-20T12:00:16;4.55;;;1.92;;
27957;SDS011;15295;42.658;23.374;2022-11-20T12:05:29;3.97;;;1.48;;
27957;SDS011;15295;42.658;23.374;2022-11-20T12:08:02;5.60;;;1.50;;
27957;SDS011;15295;42.658;23.374;2022-11-20T12:15:42;5.60;;;1.60;;
27957;SDS011;15295;42.658;23.374;2022-11-20T12:18:14;4.72;;;0.90;;
27957;SDS011;15295;42.658;23.374;2022-11-20T12:20:41;3.30;;;0.93;;
27957;SDS011;15295;42.658;23.374;2022-11-20T12:23:25;4.72;;;0.93;;
27957;SDS011;15295;42.658;23.374;2022-11-20T12:26:02;1.67;;;0.50;;
27957;SDS011;15295;42.658;23.374;2022-11-20T12:28:43;1.33;;;0.70;;
27957;SDS011;15295;42.658;23.374;2022-11-20T12:39:30;5.32;;;1.30;;
27957;SDS011;15295;42.658;23.374;2022-11-20T12:53:29;6.25;;;1.38;;
27957;SDS011;15295;42.658;23.374;2022-11-20T13:07:02;8.68;;;2.20;;
27957;SDS011;15295;42.658;23.374;2022-11-20T13:09:30;9.35;;;1.50;;
27957;SDS011;15295;42.658;23.374;2022-11-20T13:12:14;4.65;;;2.00;;
27957;SDS011;15295;42.658;23.374;2022-11-20T13:17:47;8.38;;;2.55;;
27957;SDS011;15295;42.658;23.374;2022-11-20T13:20:19;6.63;;;2.97;;
27957;SDS011;15295;42.658;23.374;2022-11-20T13:22:49;9.25;;;3.25;;
27957;SDS011;15295;42.658;23.374;2022-11-20T13:27:50;6.55;;;2.78;;
27957;SDS011;15295;42.658;23.374;2022-11-20T13:30:17;7.20;;;2.42;;
27957;SDS011;15295;42.658;23.374;2022-11-20T13:32:50;8.75;;;3.53;;
27957;SDS011;15295;42.658;23.374;2022-11-20T13:35:25;8.55;;;3.25;;
27957;SDS011;15295;42.658;23.374;2022-11-20T13:38:05;7.47;;;2.88;;
27957;SDS011;15295;42.658;23.374;2022-11-20T13:40:36;5.10;;;2.20;;
27957;SDS011;15295;42.658;23.374;2022-11-20T13:48:22;10.70;;;4.00;;
27957;SDS011;15295;42.658;23.374;2022-11-20T14:00:03;10.82;;;3.47;;
27957;SDS011;15295;42.658;23.374;2022-11-20T14:02:36;13.77;;;5.20;;
27957;SDS011;15295;42.658;23.374;2022-11-20T14:05:04;19.02;;;11.13;;
27957;SDS011;15295;42.658;23.374;2022-11-20T14:07:40;19.35;;;10.18;;
27957;SDS011;15295;42.658;23.374;2022-11-20T14:10:24;11.15;;;4.45;;
27957;SDS011;15295;42.658;23.374;2022-11-20T14:12:51;15.93;;;7.03;;
27957;SDS011;15295;42.658;23.374;2022-11-20T14:15:56;10.02;;;4.57;;
27957;SDS011;15295;42.658;23.374;2022-11-20T14:18:15;13.85;;;5.90;;
27957;SDS011;15295;42.658;23.374;2022-11-20T14:20:46;21.70;;;9.85;;
27957;SDS011;15295;42.658;23.374;2022-11-20T14:23:12;9.68;;;5.22;;
27957;SDS011;15295;42.658;23.374;2022-11-20T14:25:51;16.48;;;7.57;;
27957;SDS011;15295;42.658;23.374;2022-11-20T14:28:27;13.63;;;5.18;;
27957;SDS011;15295;42.658;23.374;2022-11-20T14:30:54;10.38;;;5.13;;
27957;SDS011;15295;42.658;23.374;2022-11-20T14:33:20;11.88;;;4.35;;
27957;SDS011;15295;42.658;23.374;2022-11-20T14:35:50;13.45;;;5.40;;
27957;SDS011;15295;42.658;23.374;2022-11-20T14:38:19;12.98;;;5.07;;
27957;SDS011;15295;42.658;23.374;2022-11-20T14:41:06;11.85;;;5.40;;
27957;SDS011;15295;42.658;23.374;2022-11-20T14:43:33;13.35;;;7.65;;
27957;SDS011;15295;42.658;23.374;2022-11-20T14:46:02;19.02;;;6.80;;
27957;SDS011;15295;42.658;23.374;2022-11-20T14:48:31;19.63;;;9.95;;
27957;SDS011;15295;42.658;23.374;2022-11-20T14:51:02;18.30;;;7.07;;
27957;SDS011;15295;42.658;23.374;2022-11-20T14:53:27;11.02;;;6.10;;
27957;SDS011;15295;42.658;23.374;2022-11-20T14:55:57;20.98;;;13.52;;
27957;SDS011;15295;42.658;23.374;2022-11-20T14:58:25;26.52;;;13.85;;
27957;SDS011;15295;42.658;23.374;2022-11-20T15:00:54;15.80;;;7.07;;
27957;SDS011;15295;42.658;23.374;2022-11-20T15:03:21;12.80;;;6.13;;
27957;SDS011;15295;42.658;23.374;2022-11-20T15:05:48;16.48;;;6.72;;
27957;SDS011;15295;42.658;23.374;2022-11-20T15:08:15;13.55;;;5.85;;
27957;SDS011;15295;42.658;23.374;2022-11-20T15:10:45;10.93;;;5.70;;
27957;SDS011;15295;42.658;23.374;2022-11-20T15:13:13;13.70;;;6.70;;
27957;SDS011;15295;42.658;23.374;2022-11-20T15:15:46;17.13;;;5.75;;
27957;SDS011;15295;42.658;23.374;2022-11-20T15:18:14;10.07;;;4.88;;
27957;SDS011;15295;42.658;23.374;2022-11-20T15:20:42;9.05;;;4.88;;
27957;SDS011;15295;42.658;23.374;2022-11-20T15:23:11;8.60;;;4.28;;
27957;SDS011;15295;42.658;23.374;2022-11-20T15:25:39;10.30;;;4.47;;
27957;SDS011;15295;42.658;23.374;2022-11-20T15:28:10;8.60;;;4.90;;
27957;SDS011;15295;42.658;23.374;2022-11-20T15:30:41;6.63;;;2.85;;
27957;SDS011;15295;42.658;23.374;2022-11-20T15:33:08;6.70;;;2.72;;
27957;SDS011;15295;42.658;23.374;2022-11-20T15:35:36;5.70;;;2.70;;
27957;SDS011;15295;42.658;23.374;2022-11-20T15:38:02;5.25;;;2.35;;
27957;SDS011;15295;42.658;23.374;2022-11-20T15:40:27;7.40;;;3.15;;
27957;SDS011;15295;42.658;23.374;2022-11-20T15:42:52;5.72;;;2.40;;
27957;SDS011;15295;42.658;23.374;2022-11-20T15:45:28;9.38;;;3.75;;
27957;SDS011;15295;42.658;23.374;2022-11-20T15:48:03;6.85;;;2.53;;
27957;SDS011;15295;42.658;23.374;2022-11-20T15:50:34;3.67;;;2.33;;
27957;SDS011;15295;42.658;23.374;2022-11-20T15:53:03;16.70;;;9.48;;
27957;SDS011;15295;42.658;23.374;2022-11-20T15:55:29;5.93;;;2.22;;
27957;SDS011;15295;42.658;23.374;2022-11-20T15:57:55;8.48;;;4.88;;
27957;SDS011;15295;42.658;23.374;2022-11-20T16:00:20;8.20;;;5.30;;
27957;SDS011;15295;42.658;23.374;2022-11-20T16:02:45;24.10;;;15.50;;
27957;SDS011;15295;42.658;23.374;2022-11-20T16:05:11;10.80;;;6.30;;
27957;SDS011;15295;42.658;23.374;2022-11-20T16:07:37;28.90;;;17.70;;
27957;SDS011;15295;42.658;23.374;2022-11-20T16:10:03;13.93;;;7.57;;
27957;SDS011;15295;42.658;23.374;2022-11-20T16:12:29;5.93;;;3.25;;
27957;SDS011;15295;42.658;23.374;2022-11-20T16:15:23;10.82;;;4.95;;
27957;SDS011;15295;42.658;23.374;2022-11-20T16:18:08;9.02;;;4.50;;
27957;SDS011;15295;42.658;23.374;2022-11-20T16:20:36;9.10;;;3.95;;
27957;SDS011;15295;42.658;23.374;2022-11-20T16:23:10;8.27;;;4.20;;
27957;SDS011;15295;42.658;23.374;2022-11-20T16:25:38;5.07;;;2.30;;
27957;SDS011;15295;42.658;23.374;2022-11-20T16:28:05;7.30;;;4.32;;
27957;SDS011;15295;42.658;23.374;2022-11-20T16:30:32;5.55;;;3.03;;
27957;SDS011;15295;42.658;23.374;2022-11-20T16:33:04;9.55;;;4.35;;
27957;SDS011;15295;42.658;23.374;2022-11-20T16:35:41;9.70;;;3.50;;
27957;SDS011;15295;42.658;23.374;2022-11-20T16:38:12;16.83;;;9.23;;
27957;SDS011;15295;42.658;23.374;2022-11-20T16:40:38;9.70;;;6.07;;
27957;SDS011;15295;42.658;23.374;2022-11-20T16:43:10;21.05;;;11.98;;
27957;SDS011;15295;42.658;23.374;2022-11-20T16:48:13;8.20;;;3.88;;
27957;SDS011;15295;42.658;23.374;2022-11-20T16:50:49;7.43;;;3.53;;
27957;SDS011;15295;42.658;23.374;2022-11-20T16:53:17;9.93;;;3.78;;
27957;SDS011;15295;42.658;23.374;2022-11-20T16:56:12;10.57;;;5.47;;
27957;SDS011;15295;42.658;23.374;2022-11-20T16:58:43;8.80;;;4.50;;
27957;SDS011;15295;42.658;23.374;2022-11-20T17:01:10;9.40;;;4.68;;
27957;SDS011;15295;42.658;23.374;2022-11-20T17:03:37;8.73;;;5.18;;
27957;SDS011;15295;42.658;23.374;2022-11-20T17:06:12;9.43;;;4.82;;
27957;SDS011;15295;42.658;23.374;2022-11-20T17:08:39;11.55;;;5.32;;
27957;SDS011;15295;42.658;23.374;2022-11-20T17:11:05;12.98;;;5.35;;
27957;SDS011;15295;42.658;23.374;2022-11-20T17:13:31;11.38;;;5.43;;
27957;SDS011;15295;42.658;23.374;2022-11-20T17:16:00;8.90;;;4.93;;
27957;SDS011;15295;42.658;23.374;2022-11-20T17:18:29;13.38;;;5.13;;
27957;SDS011;15295;42.658;23.374;2022-11-20T17:20:58;7.88;;;3.60;;
27957;SDS011;15295;42.658;23.374;2022-11-20T17:23:36;6.22;;;3.65;;
27957;SDS011;15295;42.658;23.374;2022-11-20T17:28:37;5.13;;;3.08;;
27957;SDS011;15295;42.658;23.374;2022-11-20T17:31:04;10.68;;;4.78;;
27957;SDS011;15295;42.658;23.374;2022-11-20T17:33:32;4.15;;;2.85;;
27957;SDS011;15295;42.658;23.374;2022-11-20T17:35:59;6.82;;;2.80;;
27957;SDS011;15295;42.658;23.374;2022-11-20T17:38:25;8.13;;;3.15;;
27957;SDS011;15295;42.658;23.374;2022-11-20T17:40:50;4.50;;;2.40;;
27957;SDS011;15295;42.658;23.374;2022-11-20T17:43:15;5.72;;;3.25;;
27957;SDS011;15295;42.658;23.374;2022-11-20T17:45:41;9.38;;;4.28;;
27957;SDS011;15295;42.658;23.374;2022-11-20T17:48:07;7.20;;;3.60;;
27957;SDS011;15295;42.658;23.374;2022-11-20T17:50:33;8.50;;;4.50;;
27957;SDS011;15295;42.658;23.374;2022-11-20T17:52:58;9.45;;;4.82;;
27957;SDS011;15295;42.658;23.374;2022-11-20T17:55:23;11.00;;;4.72;;
27957;SDS011;15295;42.658;23.374;2022-11-20T17:57:49;10.40;;;4.70;;
27957;SDS011;15295;42.658;23.374;2022-11-20T18:00:18;11.73;;;5.35;;
27957;SDS011;15295;42.658;23.374;2022-11-20T18:02:44;11.88;;;5.07;;
27957;SDS011;15295;42.658;23.374;2022-11-20T18:05:09;11.40;;;5.32;;
27957;SDS011;15295;42.658;23.374;2022-11-20T18:10:05;11.52;;;5.03;;
27957;SDS011;15295;42.658;23.374;2022-11-20T18:12:31;11.63;;;4.75;;